»·PEaware :: N2907G KSBP-KAVX

N2907G :: KSBP-KAVX

FLIGHT INFORMATION

Flight Status: Arrived
Operator: Privately registered:
United States
More flights under this callsign
Pilot: Thomas D. (10387)
Aircraft: Unknown
(B60T)
More flights by this aircraft type
Origin: KSBP San Luis Co Regl
United States
Destination: KAVX Catalina
United States
More flights between these airports :: More routes between these airports
Route: +RZS VTU V208 SXC
File this flight plan on PilotEdge
Remarks: TEC
Altitude:
(Current/Filed)
7,000ft
Speed:
(Current/Filed)
160kts
Departed: 05-Jan-18 02:58 PM
Arrived: 05-Jan-18 04:04 PM
Distance/Time
Traveled:
156nm/1:06
Distance/Time
To Go:
Arrived

Flight Plot

Page will automatically refresh every two minutes.


Map Options




Map Legend


Flown Route
Filed Route
Departure Airport
Arrival Airport
Navaid (VOR, NDB)
Fix

Horizontal Profiles

Position Reports

Time Latitude Longitude Heading Altitude Ground
Speed
05-Jan-18 14:33 35.238478 -120.636928 88 215ft 0kts
05-Jan-18 14:34 35.238478 -120.636928 88 215ft 0kts
05-Jan-18 14:35 35.238478 -120.636928 88 215ft 0kts
05-Jan-18 14:36 35.238478 -120.636928 88 215ft 0kts
05-Jan-18 14:37 35.238478 -120.636928 88 215ft 0kts
05-Jan-18 14:38 35.238478 -120.636928 88 215ft 0kts
05-Jan-18 14:39 35.238478 -120.636928 88 215ft 0kts
05-Jan-18 14:40 35.238478 -120.636928 88 215ft 0kts
05-Jan-18 14:41 35.238478 -120.636928 88 215ft 0kts
05-Jan-18 14:42 35.238478 -120.636928 88 215ft 0kts
05-Jan-18 14:43 35.238478 -120.636928 88 215ft 0kts
05-Jan-18 14:44 35.238478 -120.636928 88 215ft 0kts
05-Jan-18 14:53 35.237709 -120.637411 208 215ft 0kts
05-Jan-18 14:54 35.237706 -120.637413 208 215ft 0kts
05-Jan-18 14:55 35.237703 -120.637414 208 215ft 0kts
05-Jan-18 14:56 35.237701 -120.637416 208 215ft 0kts
05-Jan-18 14:57 35.237671 -120.637436 208 215ft 1kts
05-Jan-18 14:58 35.236755 -120.637988 191 215ft 5kts
05-Jan-18 14:59 35.234724 -120.634540 124 215ft 15kts
05-Jan-18 15:00 35.233644 -120.632646 122 215ft 0kts
05-Jan-18 15:01 35.233252 -120.632651 213 215ft 0kts
05-Jan-18 15:02 35.233249 -120.632653 213 215ft 0kts
05-Jan-18 15:03 35.233173 -120.632716 213 215ft 1kts
05-Jan-18 15:04 35.237448 -120.641168 305 221ft 115kts
05-Jan-18 15:05 35.258650 -120.679078 302 2470ft 150kts
05-Jan-18 15:06 35.282350 -120.722058 302 3952ft 147kts
05-Jan-18 15:07 35.313943 -120.737077 48 5435ft 144kts
05-Jan-18 15:08 35.303029 -120.696621 138 6915ft 164kts
05-Jan-18 15:09 35.264023 -120.651092 137 7000ft 207kts
05-Jan-18 15:10 35.221723 -120.601146 137 6998ft 212kts
05-Jan-18 15:11 35.179339 -120.551152 137 7000ft 211kts
05-Jan-18 15:12 35.145433 -120.511208 137 6997ft 212kts
05-Jan-18 15:13 35.103483 -120.461846 137 7001ft 206kts
05-Jan-18 15:14 35.062143 -120.413283 137 6999ft 205kts
05-Jan-18 15:15 35.024707 -120.369365 137 6998ft 206kts
05-Jan-18 15:16 34.987537 -120.325823 137 6998ft 206kts
05-Jan-18 15:17 34.946262 -120.277527 137 6998ft 205kts
05-Jan-18 15:18 34.904977 -120.229301 137 6998ft 206kts
05-Jan-18 15:19 34.863081 -120.180404 137 6990ft 207kts
05-Jan-18 15:20 34.825588 -120.136709 137 6989ft 206kts
05-Jan-18 15:21 34.787862 -120.092821 137 6986ft 206kts
05-Jan-18 15:22 34.746131 -120.044347 137 6982ft 207kts
05-Jan-18 15:23 34.704456 -119.996004 137 6981ft 207kts
05-Jan-18 15:24 34.662265 -119.947138 137 6979ft 208kts
05-Jan-18 15:25 34.625423 -119.904526 137 6980ft 208kts
05-Jan-18 15:26 34.583186 -119.855745 137 6979ft 209kts
05-Jan-18 15:27 34.541011 -119.807100 137 6980ft 208kts
05-Jan-18 15:28 34.501283 -119.756349 124 6984ft 209kts
05-Jan-18 15:29 34.469537 -119.697124 123 6981ft 209kts
05-Jan-18 15:30 34.437666 -119.638276 124 6982ft 209kts
05-Jan-18 15:31 34.405722 -119.579520 124 6984ft 209kts
05-Jan-18 15:32 34.376883 -119.526561 124 6985ft 209kts
05-Jan-18 15:33 34.346685 -119.471188 124 6985ft 209kts
05-Jan-18 15:34 34.325899 -119.433127 124 6985ft 209kts
05-Jan-18 15:35 34.293862 -119.374540 124 6984ft 209kts
05-Jan-18 15:36 34.265200 -119.322204 124 6982ft 209kts
05-Jan-18 15:37 34.233027 -119.263556 124 6980ft 209kts
05-Jan-18 15:38 34.204414 -119.211473 124 6988ft 208kts
05-Jan-18 15:39 34.172213 -119.152949 124 6990ft 208kts
05-Jan-18 15:40 34.140110 -119.094699 124 6996ft 208kts
05-Jan-18 15:41 34.100738 -119.046680 168 6998ft 204kts
05-Jan-18 15:42 34.043997 -119.041665 176 6998ft 204kts
05-Jan-18 15:43 33.987353 -119.035977 176 6997ft 204kts
05-Jan-18 15:44 33.930319 -119.030046 176 6997ft 205kts
05-Jan-18 15:45 33.873398 -119.024094 176 6995ft 205kts
05-Jan-18 15:46 33.816518 -119.018151 176 6994ft 205kts
05-Jan-18 15:47 33.774823 -118.994611 129 7007ft 209kts
05-Jan-18 15:48 33.732227 -118.930980 130 7000ft 209kts
05-Jan-18 15:49 33.701838 -118.886988 130 7000ft 200kts
05-Jan-18 15:50 33.666312 -118.835893 131 7002ft 198kts
05-Jan-18 15:51 33.626176 -118.778264 131 6998ft 188kts
05-Jan-18 15:52 33.601393 -118.742728 131 6998ft 182kts
05-Jan-18 15:53 33.570223 -118.698085 131 7001ft 170kts
05-Jan-18 15:54 33.540212 -118.655155 131 7005ft 167kts
05-Jan-18 15:55 33.510385 -118.612538 131 7008ft 166kts
05-Jan-18 15:56 33.480622 -118.570061 131 6993ft 166kts
05-Jan-18 15:57 33.453625 -118.531577 131 6997ft 169kts
05-Jan-18 15:58 33.422710 -118.489829 151 6860ft 172kts
05-Jan-18 15:59 33.385570 -118.519807 241 5532ft 190kts
05-Jan-18 16:00 33.360558 -118.576321 243 4160ft 191kts
05-Jan-18 16:01 33.383967 -118.613446 20 3129ft 170kts
05-Jan-18 16:02 33.408748 -118.573234 58 3089ft 137kts
05-Jan-18 16:03 33.406656 -118.538395 102 3081ft 105kts
05-Jan-18 16:04 33.400165 -118.507300 102 3100ft 97kts
05-Jan-18 16:05 33.396141 -118.474038 83 3048ft 101kts
05-Jan-18 16:06 33.403113 -118.442068 53 2893ft 101kts
05-Jan-18 16:07 33.420597 -118.416644 49 2594ft 99kts
05-Jan-18 16:08 33.417859 -118.393470 197 1969ft 95kts
05-Jan-18 16:09 33.404003 -118.417519 232 1605ft 46kts
05-Jan-18 16:10 33.403073 -118.418320 54 1605ft 13kts
05-Jan-18 16:11 33.403450 -118.415896 61 1605ft 5kts

Navigation Log

Ident Type
1. KSBP Airport
2. RZS Navaid
3. VTU Navaid
4. WEEZL Fix
5. SXC Navaid
6. KAVX Airport